Terminal Aerodrome Forecast
Issued by NWS

Home | Current Version | Previous Version | Text Only | Print | Product List | Glossary On
Versions: 1 2 3 4 5 6 7 8 9 10 11 12 13 14 15 16 17
000
FTUS43 KTOP 101700 RRA
TAFMHK
TAF
KMHK 101741Z 1018/1118 15013G19KT P6SM FEW050
     FM110100 15009KT P6SM SCT090
     FM111400 20011KT P6SM FEW100=

USA.gov is the U.S. government's official web portal to all federal, state and local government web resources and services.